METAR Data
IDs: Format: Raw Decoded Include TAF

Data at: 1425 UTC 21 Apr 2021

PGSN 211354Z 07003KT 10SM FEW020 27/22 A2989 RMK AO2 SLP144 T02670217 403330256